Time;durP1;ratioP1;P1;durP2;ratioP2;P2;SDS_P1;SDS_P2;PMS_P1;PMS_P2;Temp;Humidity;BMP_temperature;BMP_pressure;BME280_temperature;BME280_humidity;BME280_pressure;Samples;Min_cycle;Max_cycle;Signal;HPM_P1;HPM_P2
2024/01/14 00:01:02;;;;;;;15.60;6.63;;;;;;;2.50;100.00;98853.03;6220763;23;20037;-94
2024/01/14 00:03:32;;;;;;;16.85;6.97;;;;;;;2.53;100.00;98844.31;6221623;23;20039;-95
2024/01/14 00:06:02;;;;;;;15.52;6.93;;;;;;;2.77;100.00;98862.81;6221582;23;20044;-95
2024/01/14 00:08:31;;;;;;;13.50;6.55;;;;;;;3.45;100.00;98965.66;6221674;23;20393;-95
2024/01/14 00:11:07;;;;;;;13.98;6.95;;;;;;;3.45;100.00;98963.03;6221619;22;20019;-93
2024/01/14 00:13:36;;;;;;;22.25;10.80;;;;;;;2.55;100.00;98795.31;6219902;23;20016;-93
2024/01/14 00:16:04;;;;;;;18.35;8.13;;;;;;;2.56;100.00;98800.59;6216737;23;20017;-94
2024/01/14 00:18:30;;;;;;;19.52;8.73;;;;;;;2.94;100.00;98854.16;6218211;23;20081;-95
2024/01/14 00:20:56;;;;;;;17.80;8.27;;;;;;;3.17;100.00;98883.19;6218099;22;20025;-96
2024/01/14 00:23:22;;;;;;;16.27;8.73;;;;;;;3.25;100.00;98890.22;6217730;23;20339;-93
2024/01/14 00:25:51;;;;;;;17.13;8.57;;;;;;;2.67;100.00;98777.88;6216638;23;20024;-94
2024/01/14 00:28:19;;;;;;;22.13;10.95;;;;;;;3.51;100.00;98926.22;6217062;23;20063;-94
2024/01/14 00:30:51;;;;;;;25.95;11.88;;;;;;;2.89;100.00;98822.63;6216292;23;20027;-94
2024/01/14 00:33:19;;;;;;;28.17;12.68;;;;;;;3.20;100.00;98880.56;6217708;22;20044;-95
2024/01/14 00:35:45;;;;;;;24.67;11.80;;;;;;;2.80;100.00;98828.72;6217592;23;20099;-94
2024/01/14 00:38:13;;;;;;;28.42;13.40;;;;;;;2.28;100.00;98757.56;6216857;23;20020;-94
2024/01/14 00:40:42;;;;;;;25.10;12.75;;;;;;;2.72;100.00;98824.28;6216937;23;20030;-94
2024/01/14 00:43:08;;;;;;;17.42;7.80;;;;;;;2.28;100.00;98748.78;6218290;22;20100;-94
2024/01/14 00:45:43;;;;;;;12.50;6.82;;;;;;;3.46;100.00;98920.09;6216283;23;20498;-94
2024/01/14 00:48:11;;;;;;;14.60;7.15;;;;;;;3.55;100.00;98928.00;6217359;23;20343;-94
2024/01/14 00:50:37;;;;;;;16.77;7.53;;;;;;;2.60;100.00;98749.84;6217865;22;20028;-94
2024/01/14 00:53:03;;;;;;;19.75;9.43;;;;;;;2.71;100.00;98755.16;6217790;23;20020;-96
2024/01/14 00:55:32;;;;;;;19.42;9.65;;;;;;;3.25;100.00;98828.88;6217967;23;20047;-95
2024/01/14 00:58:00;;;;;;;25.35;10.38;;;;;;;3.28;100.00;98834.16;6217986;22;20028;-92
2024/01/14 01:00:26;;;;;;;17.45;9.75;;;;;;;2.86;100.00;98764.81;6216372;23;20027;-94
2024/01/14 01:02:54;;;;;;;16.70;8.23;;;;;;;3.48;100.00;98855.25;6217907;23;20020;-94
2024/01/14 01:05:24;;;;;;;17.38;9.20;;;;;;;3.54;100.00;98859.66;6218242;23;20020;-94
2024/01/14 01:07:53;;;;;;;10.85;6.47;;;;;;;3.33;100.00;98814.00;6217538;23;20016;-94
2024/01/14 01:10:22;;;;;;;13.05;5.82;;;;;;;3.17;100.00;98785.97;6217542;23;20020;-93
2024/01/14 01:12:50;;;;;;;13.68;6.45;;;;;;;3.99;100.00;98921.09;6218297;23;20086;-96
2024/01/14 01:15:16;;;;;;;13.32;6.60;;;;;;;3.46;100.00;98810.53;6214893;23;20450;-94
2024/01/14 01:17:42;;;;;;;10.30;4.63;;;;;;;3.65;100.00;98813.22;6216986;22;20051;-92
2024/01/14 01:20:14;;;;;;;8.07;4.38;;;;;;;4.39;99.86;98915.88;6218060;23;20079;-95
2024/01/14 01:22:40;;;;;;;9.02;3.80;;;;;;;3.87;99.89;98816.75;6243524;23;20074;-94
2024/01/14 01:25:13;;;;;;;8.32;3.92;;;;;;;3.56;100.00;98753.59;6217541;23;20048;-94
2024/01/14 01:27:39;;;;;;;8.15;4.72;;;;;;;3.54;94.79;98755.34;6215547;23;20020;-94
2024/01/14 01:30:06;;;;;;;10.77;4.65;;;;;;;3.70;95.93;98750.97;6215641;23;20025;-93
2024/01/14 01:32:33;;;;;;;9.32;3.97;;;;;;;3.67;95.94;98746.59;6217787;23;20086;-95
2024/01/14 01:35:02;;;;;;;8.75;4.35;;;;;;;4.05;99.43;98815.84;6217436;23;20047;-93
2024/01/14 01:37:29;;;;;;;8.20;4.72;;;;;;;4.42;97.16;98874.59;6217536;23;20139;-94
2024/01/14 01:39:57;;;;;;;11.20;4.47;;;;;;;3.74;97.89;98750.09;6217483;22;20031;-94
2024/01/14 01:42:23;;;;;;;8.60;3.70;;;;;;;4.01;100.00;98803.56;6218306;23;20020;-95
2024/01/14 01:44:52;;;;;;;7.47;3.83;;;;;;;3.99;100.00;98807.94;6217839;23;20074;-96
2024/01/14 01:47:19;;;;;;;9.45;3.88;;;;;;;3.76;100.00;98781.66;6215829;23;20016;-94
2024/01/14 01:49:48;;;;;;;8.68;4.00;;;;;;;3.47;100.00;98722.94;6217613;23;20566;-93
2024/01/14 01:52:15;;;;;;;11.52;4.00;;;;;;;3.96;100.00;98821.13;6216381;23;20027;-95
2024/01/14 01:54:44;;;;;;;10.85;4.45;;;;;;;3.57;100.00;98741.31;6218147;23;20127;-94
2024/01/14 01:57:13;;;;;;;10.52;5.07;;;;;;;4.08;100.00;98827.28;6217386;23;20068;-94
2024/01/14 01:59:42;;;;;;;8.77;4.68;;;;;;;4.28;100.00;98863.22;6218184;23;20020;-94
2024/01/14 02:02:09;;;;;;;12.50;5.95;;;;;;;4.16;100.00;98827.25;6215823;22;20020;-92
2024/01/14 02:04:38;;;;;;;13.68;5.65;;;;;;;3.87;100.00;98774.66;6217873;23;20021;-94
2024/01/14 02:07:05;;;;;;;14.35;6.63;;;;;;;4.20;100.00;98847.44;6219049;23;20020;-93
2024/01/14 02:09:33;;;;;;;12.70;6.78;;;;;;;3.53;100.00;98737.81;6219668;23;20024;-95
2024/01/14 02:12:02;;;;;;;15.70;8.38;;;;;;;3.27;100.00;98687.84;6218753;23;20017;-95
2024/01/14 02:14:30;;;;;;;15.23;7.60;;;;;;;4.33;100.00;98864.09;6218397;23;20027;-94
2024/01/14 02:16:56;;;;;;;15.43;6.70;;;;;;;3.38;100.00;98704.50;6217269;23;20017;-95
2024/01/14 02:19:22;;;;;;;19.60;7.53;;;;;;;4.11;100.00;98836.91;6218650;23;20023;-94
2024/01/14 02:21:53;;;;;;;14.45;7.93;;;;;;;3.20;100.00;98697.47;6218835;22;20020;-96
2024/01/14 02:24:28;;;;;;;16.13;6.43;;;;;;;4.18;100.00;98867.59;6218394;23;20024;-94
2024/01/14 02:26:54;;;;;;;13.30;6.88;;;;;;;3.10;100.00;98679.94;6220582;23;20460;-94
2024/01/14 02:29:20;;;;;;;16.17;6.90;;;;;;;3.03;100.00;98665.06;6245253;23;20020;-94
2024/01/14 02:31:52;;;;;;;20.80;8.02;;;;;;;4.04;100.00;98840.44;6218295;23;20025;-94
2024/01/14 02:34:21;;;;;;;17.48;8.68;;;;;;;3.94;100.00;98809.72;6219732;23;20023;-93
2024/01/14 02:36:49;;;;;;;18.35;9.13;;;;;;;3.52;100.00;98735.19;6219626;22;20023;-96
2024/01/14 02:39:16;;;;;;;17.60;8.55;;;;;;;3.63;100.00;98757.09;6219564;22;20067;-93
2024/01/14 02:41:45;;;;;;;16.83;8.30;;;;;;;3.97;100.00;98820.22;6194217;23;20020;-94
2024/01/14 02:44:13;;;;;;;13.82;6.20;;;;;;;3.30;100.00;98727.28;6193699;23;20047;-95
2024/01/14 02:46:41;;;;;;;12.55;6.90;;;;;;;3.22;100.00;98713.25;6192652;23;20079;-93
2024/01/14 02:49:09;;;;;;;14.40;5.47;;;;;;;3.67;100.00;98791.28;6194128;23;20040;-92
2024/01/14 02:51:38;;;;;;;12.57;6.90;;;;;;;3.93;100.00;98815.88;6218898;23;20071;-94
2024/01/14 02:54:04;;;;;;;13.57;6.50;;;;;;;3.21;100.00;98701.88;6192960;23;19996;-94
2024/01/14 02:56:30;;;;;;;14.88;7.70;;;;;;;3.40;100.00;98723.78;6192501;23;20024;-93
2024/01/14 02:58:57;;;;;;;13.15;7.00;;;;;;;3.82;100.00;98795.69;6192827;23;20150;-93
2024/01/14 03:01:23;;;;;;;9.57;5.88;;;;;;;2.88;100.00;98647.50;6190644;23;20023;-94
2024/01/14 03:03:49;;;;;;;11.85;5.30;;;;;;;3.20;100.00;98689.59;6193334;23;20021;-92
2024/01/14 03:06:18;;;;;;;9.75;5.00;;;;;;;4.01;100.00;98811.47;6218515;23;20099;-95
2024/01/14 03:08:44;;;;;;;10.65;5.47;;;;;;;3.72;100.00;98772.88;6193221;23;20020;-94
2024/01/14 03:11:12;;;;;;;11.00;5.72;;;;;;;3.39;100.00;98739.56;6193692;23;20103;-93
2024/01/14 03:13:41;;;;;;;11.82;5.85;;;;;;;3.88;100.00;98803.59;6193315;23;20044;-94
2024/01/14 03:16:13;;;;;;;9.43;4.20;;;;;;;3.74;100.00;98768.50;6191095;23;20020;-95
2024/01/14 03:18:42;;;;;;;9.52;5.32;;;;;;;2.84;100.00;98620.41;6193235;23;20423;-94
2024/01/14 03:21:08;;;;;;;12.60;5.55;;;;;;;2.81;100.00;98628.25;6193243;23;20107;-93
2024/01/14 03:23:40;;;;;;;11.05;5.97;;;;;;;3.65;100.00;98761.50;6218600;23;20079;-95
2024/01/14 03:26:06;;;;;;;14.43;6.50;;;;;;;3.37;100.00;98713.28;6193215;23;20470;-94
2024/01/14 03:28:35;;;;;;;17.63;7.68;;;;;;;3.63;100.00;98754.47;6193394;23;20020;-93
2024/01/14 03:31:15;;;;;;;14.38;6.65;;;;;;;2.62;100.00;98614.22;6191325;23;20027;-93
2024/01/14 03:33:41;;;;;;;14.70;5.80;;;;;;;3.02;100.00;98673.81;6193322;23;20044;-93
2024/01/14 03:36:08;;;;;;;8.55;4.75;;;;;;;3.05;100.00;98673.81;6193222;23;20477;-93
2024/01/14 03:38:34;;;;;;;11.05;4.90;;;;;;;2.87;100.00;98656.28;6193291;23;20004;-93
2024/01/14 03:41:00;;;;;;;8.70;4.57;;;;;;;2.76;100.00;98632.63;6218917;23;20050;-94
2024/01/14 03:43:26;;;;;;;7.20;3.33;;;;;;;3.35;100.00;98736.03;6223098;23;20023;-93
2024/01/14 03:45:52;;;;;;;8.50;3.88;;;;;;;3.75;100.00;98800.94;6219763;23;20027;-93
2024/01/14 03:48:21;;;;;;;9.63;4.40;;;;;;;3.31;100.00;98723.78;6222049;23;20046;-93
2024/01/14 03:50:47;;;;;;;8.27;3.85;;;;;;;3.57;100.00;98765.00;6223468;23;20331;-93
2024/01/14 03:53:16;;;;;;;12.25;5.20;;;;;;;2.79;100.00;98614.25;6222664;23;20047;-94
2024/01/14 03:55:47;;;;;;;12.60;6.43;;;;;;;2.64;100.00;98617.72;6222739;23;20381;-94
2024/01/14 03:58:13;;;;;;;15.57;6.22;;;;;;;3.22;100.00;98685.22;6223213;23;20028;-94
2024/01/14 04:00:42;;;;;;;13.52;6.75;;;;;;;3.47;100.00;98743.06;6220842;23;20024;-95
2024/01/14 04:03:08;;;;;;;11.52;5.70;;;;;;;3.11;100.00;98691.34;6222644;23;20123;-93
2024/01/14 04:05:39;;;;;;;11.88;5.45;;;;;;;2.45;100.00;98590.56;6222941;23;20016;-93
2024/01/14 04:08:06;;;;;;;10.27;5.78;;;;;;;3.47;100.00;98749.22;6273443;22;20024;-93
2024/01/14 04:10:35;;;;;;;14.73;6.30;;;;;;;3.08;100.00;98687.84;6222325;23;20057;-93
2024/01/14 04:13:02;;;;;;;14.77;7.20;;;;;;;3.22;100.00;98708.00;6222505;23;20054;-94
2024/01/14 04:15:28;;;;;;;11.98;5.82;;;;;;;3.18;100.00;98691.34;6220860;23;20044;-93
2024/01/14 04:17:59;;;;;;;14.18;7.32;;;;;;;3.12;100.00;98687.84;6222608;23;20427;-93
2024/01/14 04:20:25;;;;;;;10.80;6.57;;;;;;;3.01;100.00;98664.16;6273048;22;20024;-95
2024/01/14 04:22:52;;;;;;;13.60;7.28;;;;;;;3.73;100.00;98771.13;6222599;23;20075;-94
2024/01/14 04:25:21;;;;;;;14.98;7.95;;;;;;;3.16;100.00;98679.94;6222501;23;20011;-94
2024/01/14 04:27:50;;;;;;;15.32;7.05;;;;;;;3.42;100.00;98736.94;6222003;23;20017;-95
2024/01/14 04:30:16;;;;;;;15.52;7.68;;;;;;;2.66;100.00;98615.97;6219968;22;20016;-95
2024/01/14 04:32:43;;;;;;;15.50;7.50;;;;;;;3.70;100.00;98799.19;6271099;22;20107;-93
2024/01/14 04:35:14;;;;;;;16.77;7.32;;;;;;;2.62;100.00;98619.47;6221322;23;20430;-95
2024/01/14 04:37:43;;;;;;;15.00;7.32;;;;;;;3.32;100.00;98736.06;6221320;23;20111;-93
2024/01/14 04:40:11;;;;;;;12.15;6.55;;;;;;;3.04;100.00;98703.59;6221661;23;20052;-94
2024/01/14 04:42:42;;;;;;;12.52;5.72;;;;;;;3.13;100.00;98689.59;6221251;23;20461;-94
2024/01/14 04:45:08;;;;;;;14.27;6.95;;;;;;;3.12;100.00;98695.72;6219697;23;20338;-93
2024/01/14 04:47:37;;;;;;;11.05;5.97;;;;;;;2.70;100.00;98629.97;6221294;23;20103;-94
2024/01/14 04:50:03;;;;;;;10.55;5.75;;;;;;;3.02;100.00;98682.56;6221660;23;20023;-94
2024/01/14 04:52:32;;;;;;;11.75;6.00;;;;;;;2.90;100.00;98672.03;6246909;23;20024;-93
2024/01/14 04:54:58;;;;;;;12.45;6.13;;;;;;;2.49;100.00;98601.91;6221195;23;20073;-95
2024/01/14 04:57:25;;;;;;;13.93;7.38;;;;;;;2.95;100.00;98680.81;6272066;22;20454;-93
2024/01/14 04:59:56;;;;;;;11.35;6.32;;;;;;;2.53;100.00;98606.31;6246575;23;20028;-94
2024/01/14 05:02:24;;;;;;;12.57;5.47;;;;;;;2.96;100.00;98679.06;6219390;23;20020;-94
2024/01/14 05:04:53;;;;;;;10.65;5.75;;;;;;;2.72;100.00;98637.88;6220989;22;20115;-94
2024/01/14 05:07:22;;;;;;;14.73;6.72;;;;;;;3.18;100.00;98709.75;6247252;22;20406;-94
2024/01/14 05:09:51;;;;;;;12.43;6.03;;;;;;;2.88;100.00;98661.56;6221777;23;20055;-93
2024/01/14 05:12:17;;;;;;;14.07;6.05;;;;;;;2.37;100.00;98571.28;6221746;23;20111;-95
2024/01/14 05:14:44;;;;;;;16.75;6.68;;;;;;;2.61;100.00;98614.22;6272481;22;20047;-94
2024/01/14 05:17:13;;;;;;;14.13;6.30;;;;;;;3.01;100.00;98686.06;6220201;22;20016;-93
2024/01/14 05:19:40;;;;;;;13.90;6.10;;;;;;;3.15;100.00;98743.91;6246582;23;20026;-93
2024/01/14 05:22:09;;;;;;;11.00;6.40;;;;;;;2.70;100.00;98681.63;6219760;23;20024;-93
2024/01/14 05:24:35;;;;;;;11.35;6.22;;;;;;;2.77;100.00;98707.03;6221373;23;20497;-94
2024/01/14 05:27:06;;;;;;;14.20;6.57;;;;;;;2.12;100.00;98586.06;6246708;22;20044;-95
2024/01/14 05:29:38;;;;;;;12.98;6.28;;;;;;;2.23;100.00;98608.00;6221596;23;20016;-93
2024/01/14 05:32:06;;;;;;;11.63;6.60;;;;;;;2.55;100.00;98632.56;6220090;23;20349;-95
2024/01/14 05:34:34;;;;;;;12.70;5.40;;;;;;;3.38;100.00;98767.56;6221526;23;20028;-93
2024/01/14 05:37:03;;;;;;;9.55;5.53;;;;;;;2.54;100.00;98609.81;6221818;23;20351;-94
2024/01/14 05:39:30;;;;;;;11.48;5.53;;;;;;;2.89;100.00;98675.56;6221771;22;20438;-94
2024/01/14 05:41:59;;;;;;;13.82;5.80;;;;;;;3.46;100.00;98757.09;6221992;23;20020;-93
2024/01/14 05:44:25;;;;;;;10.85;5.70;;;;;;;2.75;100.00;98653.63;6272526;22;20027;-96
2024/01/14 05:46:54;;;;;;;15.73;6.68;;;;;;;2.45;100.00;98624.69;6220183;23;20024;-94
2024/01/14 05:49:21;;;;;;;11.77;5.38;;;;;;;2.86;100.00;98676.44;6221998;23;20043;-93
2024/01/14 05:51:53;;;;;;;11.70;5.97;;;;;;;3.30;100.00;98745.69;6222255;23;20024;-94
2024/01/14 05:54:41;;;;;;;10.25;6.30;;;;;;;3.28;100.00;98736.91;6222142;23;20104;-93
2024/01/14 05:57:10;;;;;;;14.20;6.75;;;;;;;2.84;100.00;98653.63;6222846;23;20112;-94
2024/01/14 05:59:39;;;;;;;14.68;6.25;;;;;;;3.24;100.00;98714.13;6221657;23;20020;-92
2024/01/14 06:02:09;;;;;;;14.80;5.75;;;;;;;3.33;100.00;98735.16;6219907;23;20047;-93
2024/01/14 06:04:39;;;;;;;12.45;5.93;;;;;;;2.35;100.00;98573.03;6221706;23;20335;-92
2024/01/14 06:07:04;;;;;;;14.18;6.05;;;;;;;3.07;100.00;98698.34;6272135;22;20107;-92
2024/01/14 06:09:35;;;;;;;9.20;4.35;;;;;;;2.47;100.00;98583.56;6221793;23;20027;-91
2024/01/14 06:12:01;;;;;;;7.47;4.28;;;;;;;3.19;100.00;98714.13;6222294;23;20029;-93
2024/01/14 06:14:27;;;;;;;10.82;5.53;;;;;;;2.91;100.00;98647.53;6246660;23;20453;-92
2024/01/14 06:16:58;;;;;;;10.23;5.63;;;;;;;3.22;100.00;98692.22;6218947;23;20029;-96
2024/01/14 06:19:32;;;;;;;10.88;5.03;;;;;;;3.74;100.00;98765.88;6221126;23;20024;-95
2024/01/14 06:22:00;;;;;;;12.68;5.45;;;;;;;3.82;100.00;98766.75;6221861;23;20020;-93
2024/01/14 06:24:26;;;;;;;10.30;5.70;;;;;;;3.87;100.00;98767.63;6220537;23;20102;-95
2024/01/14 06:26:56;;;;;;;11.50;5.82;;;;;;;3.70;100.00;98735.19;6222252;23;20433;-95
2024/01/14 06:29:22;;;;;;;11.45;6.00;;;;;;;2.83;100.00;98591.50;6222452;23;20027;-96
2024/01/14 06:31:48;;;;;;;13.73;6.15;;;;;;;2.98;100.00;98599.38;6222597;23;20027;-94
2024/01/14 06:34:53;;;;;;;12.35;6.10;;;;;;;3.87;100.00;98756.22;6222653;23;20026;-95
2024/01/14 06:37:20;;;;;;;17.02;6.55;;;;;;;3.11;100.00;98623.03;6219996;23;20023;-94
2024/01/14 06:39:46;;;;;;;9.90;4.95;;;;;;;3.07;100.00;98614.28;6222672;23;20031;-95
2024/01/14 06:42:18;;;;;;;10.27;5.40;;;;;;;3.54;100.00;98675.59;6222191;23;20020;-93
2024/01/14 06:45:07;;;;;;;13.95;6.80;;;;;;;3.84;100.00;98762.38;6223825;23;20050;-94
2024/01/14 06:47:49;;;;;;;8.35;3.85;;;;;;;2.71;100.00;98601.97;6249378;23;20422;-94
2024/01/14 06:50:15;;;;;;;7.78;3.80;;;;;;;3.21;100.00;98669.44;6223925;23;20114;-92
2024/01/14 06:52:47;;;;;;;9.75;4.63;;;;;;;3.70;100.00;98737.81;6224242;23;20339;-92
2024/01/14 06:55:29;;;;;;;8.02;4.25;;;;;;;3.01;100.00;98599.38;6224604;23;20020;-92
2024/01/14 06:57:57;;;;;;;11.50;5.22;;;;;;;3.13;100.00;98610.78;6224409;23;20020;-93
2024/01/14 07:00:24;;;;;;;14.13;7.63;;;;;;;3.89;100.00;98721.16;6222976;23;20417;-93
2024/01/14 07:02:52;;;;;;;17.58;8.02;;;;;;;3.49;100.00;98663.34;6224176;23;20382;-94
2024/01/14 07:05:18;;;;;;;11.95;6.28;;;;;;;3.15;100.00;98614.28;6249302;23;20031;-94
2024/01/14 07:07:49;;;;;;;17.77;7.85;;;;;;;3.06;100.00;98602.91;6223932;23;20069;-94
2024/01/14 07:10:17;;;;;;;15.82;6.90;;;;;;;3.03;100.00;98602.00;6223543;23;20086;-95
2024/01/14 07:12:48;;;;;;;11.55;6.25;;;;;;;3.97;100.00;98746.56;6224462;23;20051;-94
2024/01/14 07:15:17;;;;;;;14.65;6.60;;;;;;;2.79;100.00;98552.97;6221021;23;20020;-94
2024/01/14 07:17:48;;;;;;;13.43;6.85;;;;;;;2.83;100.00;98563.47;6223284;23;20016;-92
2024/01/14 07:20:16;;;;;;;14.02;6.90;;;;;;;2.95;100.00;98593.25;6223888;23;20150;-92
2024/01/14 07:22:45;;;;;;;12.25;7.28;;;;;;;3.65;100.00;98708.91;6223938;23;20051;-93
2024/01/14 07:25:13;;;;;;;13.30;7.22;;;;;;;2.79;100.00;98579.22;6224120;23;20050;-93
2024/01/14 07:27:41;;;;;;;13.00;5.78;;;;;;;3.35;100.00;98651.94;6224684;22;20015;-94
2024/01/14 07:30:10;;;;;;;18.23;6.68;;;;;;;3.74;100.00;98708.00;6222241;23;20047;-95
2024/01/14 07:32:39;;;;;;;13.82;7.13;;;;;;;2.99;100.00;98579.22;6223452;23;20359;-92
2024/01/14 07:35:06;;;;;;;14.00;7.05;;;;;;;3.47;100.00;98657.19;6222299;23;20042;-93
2024/01/14 07:37:35;;;;;;;12.68;7.30;;;;;;;3.88;100.00;98702.72;6223636;23;20461;-93
2024/01/14 07:40:01;;;;;;;12.65;6.57;;;;;;;4.15;100.00;98749.19;6223480;23;20099;-95
2024/01/14 07:42:53;;;;;;;13.00;6.47;;;;;;;3.04;100.00;98548.63;6247384;23;20070;-94
2024/01/14 07:45:19;;;;;;;12.35;6.57;;;;;;;4.09;100.00;98707.94;6180190;23;20030;-93
2024/01/14 07:47:48;;;;;;;14.73;7.13;;;;;;;3.88;100.00;98713.25;6132513;23;20025;-94
2024/01/14 07:50:18;;;;;;;11.27;6.32;;;;;;;3.03;100.00;98581.00;6131450;23;20437;-91
2024/01/14 07:52:52;;;;;;;10.73;5.85;;;;;;;3.77;100.00;98680.81;6131462;23;20094;-93
2024/01/14 07:55:26;;;;;;;14.25;6.18;;;;;;;4.30;100.00;98753.56;6182313;23;20151;-94
2024/01/14 07:57:58;;;;;;;11.57;6.00;;;;;;;4.02;100.00;98684.31;6182009;23;20160;-95
2024/01/14 08:00:24;;;;;;;10.50;4.88;;;;;;;3.80;100.00;98642.25;6130704;23;20056;-94
2024/01/14 08:09:44;;;;;;;11.63;5.50;;;;;;;4.40;100.00;98707.00;6127896;23;20465;-94
2024/01/14 08:12:13;;;;;;;12.90;6.35;;;;;;;4.06;100.00;98643.97;6147109;23;20025;-93
2024/01/14 08:14:43;;;;;;;12.48;6.43;;;;;;;4.22;100.00;98664.06;6103380;23;20049;-94
2024/01/14 08:17:11;;;;;;;16.17;7.25;;;;;;;3.91;100.00;98619.44;6154983;23;20043;-95
2024/01/14 08:19:40;;;;;;;13.57;6.95;;;;;;;4.09;100.00;98634.28;6161521;23;20021;-94
2024/01/14 08:22:09;;;;;;;13.68;7.05;;;;;;;4.41;100.00;98682.44;6161470;23;20053;-92
2024/01/14 08:24:44;;;;;;;14.07;7.40;;;;;;;3.68;100.00;98550.22;6160580;23;20028;-94
2024/01/14 08:28:09;;;;;;;14.00;7.30;;;;;;;4.84;100.00;98730.53;6161505;23;20029;-95
2024/01/14 08:34:32;;;;;;;14.75;6.13;;;;;;;4.69;100.00;98689.34;6037841;23;20114;-95
2024/01/14 08:36:57;;;;;;;16.90;8.55;;;;;;;4.59;100.00;98649.88;6095638;23;20397;-94
2024/01/14 08:39:23;;;;;;;16.38;9.40;;;;;;;4.19;100.00;98568.47;6041174;23;20030;-94
2024/01/14 08:41:50;;;;;;;17.90;9.18;;;;;;;4.93;100.00;98688.31;6025783;23;20033;-93
2024/01/14 08:44:24;;;;;;;15.93;9.00;;;;;;;4.38;100.00;98585.03;6100136;23;20025;-95
2024/01/14 08:46:59;;;;;;;14.80;8.13;;;;;;;4.39;100.00;98574.50;6076784;23;20117;-95
2024/01/14 08:56:11;;;;;;;19.45;8.90;;;;;;;4.41;100.00;98570.09;6098403;23;20134;-95
2024/01/14 08:58:41;;;;;;;14.65;8.90;;;;;;;4.54;100.00;98586.69;6075274;23;20019;-93
2024/01/14 09:01:18;;;;;;;23.38;10.07;;;;;;;5.28;100.00;98710.06;6122431;23;20021;-94
2024/01/14 09:03:44;;;;;;;24.85;9.98;;;;;;;5.03;100.00;98657.53;6193329;23;20021;-95
2024/01/14 09:06:38;;;;;;;22.52;10.73;;;;;;;5.61;100.00;98750.28;6195516;23;20075;-95
2024/01/14 09:09:16;;;;;;;15.57;9.10;;;;;;;5.07;100.00;98643.41;6133796;23;20017;-95
2024/01/14 09:11:58;;;;;;;18.83;9.43;;;;;;;4.92;100.00;98636.53;6136107;23;20017;-96
2024/01/14 09:14:24;;;;;;;20.70;10.93;;;;;;;4.78;100.00;98598.84;6137859;23;20044;-96
2024/01/14 09:17:10;;;;;;;23.27;12.30;;;;;;;5.19;100.00;98654.78;6144604;23;20026;-95
2024/01/14 09:19:47;;;;;;;25.90;13.30;;;;;;;4.88;100.00;98599.63;6142223;23;20060;-96
2024/01/14 09:22:18;;;;;;;26.17;11.82;;;;;;;4.71;100.00;98578.69;6137100;23;20067;-95
2024/01/14 09:28:43;;;;;;;23.20;10.40;;;;;;;4.85;100.00;98586.50;6019657;23;20023;-94
2024/01/14 09:31:12;;;;;;;20.38;11.15;;;;;;;4.82;100.00;98571.59;6020307;23;20023;-96
2024/01/14 09:33:49;;;;;;;23.70;12.45;;;;;;;4.71;100.00;98571.66;6009759;23;20109;-94
2024/01/14 09:36:45;;;;;;;24.42;11.18;;;;;;;4.93;100.00;98576.78;6045824;23;20078;-96
2024/01/14 09:39:21;;;;;;;27.08;12.25;;;;;;;5.10;100.00;98601.25;6022850;23;20019;-96
2024/01/14 09:42:11;;;;;;;20.67;12.00;;;;;;;4.96;100.00;98587.28;6047781;23;20038;-95
2024/01/14 09:44:37;;;;;;;17.98;9.43;;;;;;;5.01;100.00;98579.34;6045499;23;20027;-95
2024/01/14 09:47:44;;;;;;;18.77;8.88;;;;;;;5.55;100.00;98662.41;6072108;23;20480;-96
2024/01/14 09:50:20;;;;;;;11.95;5.20;;;;;;;5.14;100.00;98571.34;6043131;23;20007;-96
2024/01/14 09:52:56;;;;;;;10.57;5.00;;;;;;;5.17;100.00;98566.94;6048014;23;20019;-96
2024/01/14 10:06:13;;;;;;;9.93;4.25;;;;;;;6.27;98.77;98683.72;6014129;23;20031;-96
2024/01/14 10:09:19;;;;;;;7.97;3.58;;;;;;;6.60;97.19;98716.78;6014244;23;20103;-95
2024/01/14 10:12:15;;;;;;;5.32;3.20;;;;;;;6.62;94.20;98711.50;6014691;23;20027;-95
2024/01/14 10:15:09;;;;;;;5.00;2.95;;;;;;;5.90;93.87;98566.19;5990410;23;20024;-96
2024/01/14 10:17:35;;;;;;;7.40;3.53;;;;;;;5.91;94.75;98540.66;6014455;23;20026;-96
2024/01/14 10:28:01;;;;;;;12.37;7.13;;;;;;;7.34;100.00;98681.41;6237609;22;20081;-96
2024/01/14 10:35:43;;;;;;;16.67;9.05;;;;;;;6.60;100.00;98520.41;6171992;23;20020;-93
2024/01/14 10:38:05;;;;;;;30.42;15.48;;;;;;;6.66;100.00;98510.63;6106293;23;20493;-95
2024/01/14 10:44:09;;;;;;;27.25;14.50;;;;;;;6.59;100.00;98490.47;6072091;23;20062;-94
2024/01/14 10:46:47;;;;;;;31.92;15.65;;;;;;;7.09;100.00;98578.66;6071181;23;20468;-95
2024/01/14 10:49:32;;;;;;;29.58;13.95;;;;;;;6.83;100.00;98534.16;6071391;23;20074;-94
2024/01/14 10:52:10;;;;;;;25.77;12.02;;;;;;;7.06;100.00;98560.19;6047803;23;20166;-94
2024/01/14 10:54:43;;;;;;;25.02;13.10;;;;;;;7.53;100.00;98616.72;6046803;23;20453;-94
2024/01/14 10:57:21;;;;;;;23.15;11.48;;;;;;;7.09;100.00;98522.25;6046769;23;20083;-94
2024/01/14 10:59:48;;;;;;;17.10;10.50;;;;;;;7.08;100.00;98510.81;6046881;23;20023;-95
2024/01/14 11:02:16;;;;;;;27.80;11.80;;;;;;;7.44;100.00;98561.34;6069386;23;20030;-96
2024/01/14 11:04:51;;;;;;;26.15;14.13;;;;;;;7.16;100.00;98500.97;6047083;23;20124;-94
2024/01/14 11:07:22;;;;;;;31.42;15.27;;;;;;;7.73;100.00;98581.09;6071074;23;20023;-95
2024/01/14 11:09:52;;;;;;;32.88;16.02;;;;;;;6.92;100.00;98430.91;6046991;23;20488;-96
2024/01/14 11:12:30;;;;;;;30.92;15.43;;;;;;;7.15;100.00;98463.97;6047377;23;20051;-95
2024/01/14 11:15:06;;;;;;;33.42;15.00;;;;;;;7.85;100.00;98588.81;6153683;23;20123;-95
2024/01/14 11:17:57;;;;;;;23.08;12.27;;;;;;;7.81;100.00;98556.22;6204839;22;20028;-94
2024/01/14 11:20:36;;;;;;;23.27;12.15;;;;;;;7.97;100.00;98567.38;6254280;22;20074;-96
2024/01/14 11:23:30;;;;;;;23.30;12.48;;;;;;;7.02;100.00;98413.09;6255692;22;20023;-95
2024/01/14 11:26:30;;;;;;;23.73;12.23;;;;;;;7.41;100.00;98476.72;6230257;22;20094;-96
2024/01/14 11:37:13;;;;;;;17.38;8.95;;;;;;;8.14;100.00;98585.56;6255592;22;20011;-95
2024/01/14 11:49:29;;;;;;;20.42;11.40;;;;;;;7.88;100.00;98434.31;6253015;22;20385;-96
2024/01/14 11:52:40;;;;;;;18.85;8.40;;;;;;;8.88;100.00;98564.59;6069462;23;20021;-93
2024/01/14 11:55:42;;;;;;;21.70;9.85;;;;;;;8.75;100.00;98570.16;6078540;23;20025;-94
2024/01/14 12:01:52;;;;;;;20.92;9.60;;;;;;;8.38;100.00;98480.00;6014311;23;20101;-96
2024/01/14 12:04:24;;;;;;;24.08;11.98;;;;;;;8.40;100.00;98463.19;6105031;23;20113;-94
2024/01/14 12:06:55;;;;;;;22.77;11.68;;;;;;;8.47;100.00;98460.38;6078709;23;20109;-95
2024/01/14 12:09:27;;;;;;;24.92;11.02;;;;;;;8.05;100.00;98392.47;6079874;23;20461;-94
2024/01/14 12:12:13;;;;;;;21.20;9.90;;;;;;;9.01;100.00;98536.84;6078722;23;20048;-95
2024/01/14 12:15:17;;;;;;;21.80;10.88;;;;;;;8.15;100.00;98380.72;6075435;23;20022;-95
2024/01/14 12:17:58;;;;;;;34.95;17.92;;;;;;;8.22;100.00;98378.81;6074484;23;20018;-95
2024/01/14 12:20:29;;;;;;;25.92;11.35;;;;;;;8.21;100.00;98366.47;6076193;23;20018;-94
2024/01/14 12:22:59;;;;;;;18.77;9.43;;;;;;;8.20;100.00;98349.72;6075358;23;20019;-96
2024/01/14 12:25:37;;;;;;;18.70;10.43;;;;;;;8.88;100.00;98462.03;6075795;23;20022;-94
2024/01/14 12:28:14;;;;;;;23.52;11.35;;;;;;;8.21;100.00;98343.50;6083335;23;20488;-96
2024/01/14 12:30:41;;;;;;;22.58;9.98;;;;;;;8.82;100.00;98415.31;6110178;23;20025;-96
2024/01/14 12:33:08;;;;;;;21.08;10.75;;;;;;;8.30;100.00;98338.88;6186562;23;20324;-96
2024/01/14 12:35:39;;;;;;;16.83;10.70;;;;;;;8.59;100.00;98370.88;6198108;23;20044;-96
2024/01/14 12:38:09;;;;;;;22.73;11.00;;;;;;;9.22;100.00;98470.00;6201919;23;20021;-95
2024/01/14 12:40:37;;;;;;;21.95;11.68;;;;;;;9.31;100.00;98468.88;6200839;23;20024;-96
2024/01/14 12:43:12;;;;;;;20.02;9.05;;;;;;;8.30;100.00;98294.72;6202110;23;20008;-95
2024/01/14 12:45:47;;;;;;;17.90;9.70;;;;;;;9.42;100.00;98464.16;6225063;23;20350;-94
2024/01/14 12:48:22;;;;;;;16.58;9.20;;;;;;;8.60;100.00;98306.31;6234667;23;20024;-95
2024/01/14 12:50:59;;;;;;;16.02;9.10;;;;;;;8.61;100.00;98302.78;6206441;23;20004;-95
2024/01/14 12:53:33;;;;;;;16.20;8.20;;;;;;;8.81;100.00;98312.84;6197179;23;20005;-96
2024/01/14 12:56:25;;;;;;;;;;;;;;;;;;;;;